createdAt,value
2023-04-15T00:01:54.947Z,32.83
2023-04-15T00:04:22.009Z,32.69
2023-04-15T00:06:55.251Z,32.40
2023-04-15T00:09:21.944Z,32.53
2023-04-15T00:11:48.889Z,32.55
2023-04-15T00:14:15.576Z,32.57
2023-04-15T00:16:42.230Z,32.71
2023-04-15T00:19:09.037Z,32.76
2023-04-15T00:21:35.765Z,33.17
2023-04-15T00:24:02.457Z,33.72
2023-04-15T00:26:29.107Z,34.52
2023-04-15T00:28:56.725Z,34.71
2023-04-15T00:31:23.550Z,34.69
2023-04-15T00:33:50.598Z,34.56
2023-04-15T00:36:17.630Z,35.47
2023-04-15T00:38:44.276Z,36.42
2023-04-15T00:41:11.898Z,38.49
2023-04-15T00:43:39.045Z,39.46
2023-04-15T00:46:07.530Z,39.24
2023-04-15T00:48:34.168Z,39.66
2023-04-15T00:51:00.888Z,40.75
2023-04-15T00:53:27.516Z,39.36
2023-04-15T00:55:54.346Z,40.28
2023-04-15T00:58:21.204Z,40.21
2023-04-15T01:00:48.070Z,40.21
2023-04-15T01:03:15.515Z,40.46
2023-04-15T01:05:42.466Z,40.65
2023-04-15T01:08:09.799Z,39.85
2023-04-15T01:10:36.791Z,40.72
2023-04-15T01:13:04.189Z,41.84
2023-04-15T01:15:31.489Z,41.89
2023-04-15T01:17:59.575Z,42.32
2023-04-15T01:20:26.317Z,42.59
2023-04-15T01:22:54.880Z,42.67
2023-04-15T01:25:41.852Z,42.75
2023-04-15T01:28:09.512Z,43.12
2023-04-15T01:30:36.873Z,42.90
2023-04-15T01:33:03.739Z,42.63
2023-04-15T01:35:30.394Z,43.16
2023-04-15T01:38:09.435Z,42.08
2023-04-15T01:40:37.692Z,41.89
2023-04-15T01:43:04.551Z,41.70
2023-04-15T01:45:31.254Z,41.91
2023-04-15T01:47:57.887Z,41.47
2023-04-15T01:50:24.978Z,42.27
2023-04-15T01:52:52.063Z,41.61
2023-04-15T01:55:18.857Z,41.85
2023-04-15T01:57:46.505Z,41.28
2023-04-15T02:00:13.417Z,41.66
2023-04-15T02:02:40.311Z,42.35
2023-04-15T02:05:07.306Z,43.00
2023-04-15T02:07:33.946Z,42.68
2023-04-15T02:10:02.833Z,43.75
2023-04-15T02:12:29.588Z,44.48
2023-04-15T02:14:56.193Z,44.17
2023-04-15T02:17:22.813Z,44.20
2023-04-15T02:19:49.544Z,44.31
2023-04-15T02:22:18.688Z,44.03
2023-04-15T02:24:46.974Z,44.04
2023-04-15T02:27:18.001Z,43.57
2023-04-15T02:29:45.933Z,44.09
2023-04-15T02:32:13.147Z,43.76
2023-04-15T02:34:42.602Z,44.05
2023-04-15T02:37:11.648Z,44.43
2023-04-15T02:39:38.865Z,44.70
2023-04-15T02:42:06.064Z,44.45
2023-04-15T02:44:34.110Z,45.02
2023-04-15T02:47:04.885Z,45.54
2023-04-15T02:49:31.426Z,46.56
2023-04-15T02:51:59.862Z,46.34
2023-04-15T02:54:28.778Z,46.12
2023-04-15T02:56:56.222Z,45.66
2023-04-15T02:59:23.074Z,45.93
2023-04-15T03:01:49.880Z,46.16
2023-04-15T03:04:17.466Z,46.72
2023-04-15T03:06:44.528Z,48.37
2023-04-15T03:09:11.131Z,48.97
2023-04-15T03:11:40.713Z,48.56
2023-04-15T03:14:09.007Z,48.72
2023-04-15T03:16:39.488Z,48.57
2023-04-15T03:19:06.508Z,48.23
2023-04-15T03:21:34.322Z,48.25
2023-04-15T03:24:00.897Z,49.15
2023-04-15T03:26:29.431Z,49.75
2023-04-15T03:28:59.898Z,49.69
2023-04-15T03:31:27.103Z,49.72
2023-04-15T03:33:53.669Z,49.30
2023-04-15T03:36:20.338Z,50.46
2023-04-15T03:38:46.926Z,50.41
2023-04-15T03:41:13.890Z,49.46
2023-04-15T03:43:40.488Z,49.55
2023-04-15T03:46:07.255Z,49.20
2023-04-15T03:48:34.120Z,49.51
2023-04-15T03:51:00.763Z,50.60
2023-04-15T03:53:27.457Z,49.97
2023-04-15T03:55:54.039Z,49.20
2023-04-15T03:58:20.691Z,48.81
2023-04-15T04:00:47.360Z,48.66
2023-04-15T04:03:14.042Z,48.90
2023-04-15T04:05:41.575Z,49.74
2023-04-15T04:08:08.371Z,49.08
2023-04-15T04:10:35.125Z,48.17
2023-04-15T04:13:02.068Z,48.08
2023-04-15T04:15:28.738Z,48.22
2023-04-15T04:17:55.578Z,47.39
2023-04-15T04:20:22.199Z,48.58
2023-04-15T04:22:48.864Z,50.57
2023-04-15T04:25:15.502Z,50.40
2023-04-15T04:27:42.141Z,50.71
2023-04-15T04:30:09.203Z,50.37
2023-04-15T04:32:35.878Z,50.29
2023-04-15T04:35:03.051Z,50.91
2023-04-15T04:37:29.580Z,52.32
2023-04-15T04:39:56.147Z,53.17
2023-04-15T04:42:22.846Z,53.43
2023-04-15T04:44:49.490Z,52.43
2023-04-15T04:47:16.539Z,52.67
2023-04-15T04:49:43.184Z,51.93
2023-04-15T04:52:09.806Z,52.23
2023-04-15T04:54:36.433Z,52.62
2023-04-15T04:57:03.073Z,52.02
2023-04-15T04:59:29.655Z,51.81
2023-04-15T05:01:56.525Z,51.79
2023-04-15T05:04:23.209Z,51.62
2023-04-15T05:06:49.737Z,51.84
2023-04-15T05:09:16.407Z,52.99
2023-04-15T05:11:43.073Z,53.65
2023-04-15T05:14:09.629Z,53.36
2023-04-15T05:16:36.563Z,54.25
2023-04-15T05:19:03.365Z,53.56
2023-04-15T05:21:31.164Z,52.04
2023-04-15T05:23:57.755Z,52.87
2023-04-15T05:26:24.357Z,53.07
2023-04-15T05:28:50.954Z,52.16
2023-04-15T05:31:17.569Z,52.14
2023-04-15T05:33:44.259Z,53.62
2023-04-15T05:36:10.823Z,53.14
2023-04-15T05:38:37.481Z,52.41
2023-04-15T05:41:04.110Z,52.01
2023-04-15T05:43:31.055Z,51.54
2023-04-15T05:45:57.697Z,51.25
2023-04-15T05:48:24.349Z,51.41
2023-04-15T05:50:51.069Z,50.30
2023-04-15T05:53:17.700Z,50.13
2023-04-15T05:55:44.324Z,49.88
2023-04-15T05:58:11.387Z,49.56
2023-04-15T06:00:38.610Z,49.04
2023-04-15T06:03:06.297Z,49.05
2023-04-15T06:05:33.378Z,48.71
2023-04-15T06:07:59.960Z,48.94
2023-04-15T06:10:26.564Z,48.57
2023-04-15T06:12:53.433Z,47.80
2023-04-15T06:15:20.130Z,48.93
2023-04-15T06:17:46.733Z,48.14
2023-04-15T06:20:13.360Z,48.61
2023-04-15T06:22:40.228Z,47.38
2023-04-15T06:25:08.722Z,47.70
2023-04-15T06:27:35.401Z,47.29
2023-04-15T06:30:02.137Z,47.49
2023-04-15T06:32:28.838Z,46.22
2023-04-15T06:34:55.441Z,46.19
2023-04-15T06:37:22.113Z,45.54
2023-04-15T06:39:48.753Z,45.54
2023-04-15T06:42:15.455Z,45.14
2023-04-15T06:44:42.284Z,45.02
2023-04-15T06:47:09.188Z,44.85
2023-04-15T06:49:36.002Z,44.15
2023-04-15T06:52:02.771Z,44.21
2023-04-15T06:54:29.340Z,44.07
2023-04-15T06:56:56.048Z,43.37
2023-04-15T06:59:22.563Z,43.15
2023-04-15T07:01:49.183Z,42.50
2023-04-15T07:04:15.880Z,41.93
2023-04-15T07:06:42.862Z,40.79
2023-04-15T07:09:09.851Z,40.14
2023-04-15T07:11:36.661Z,38.94
2023-04-15T07:14:03.300Z,38.16
2023-04-15T07:16:30.467Z,37.20
2023-04-15T07:18:57.200Z,36.20
2023-04-15T07:21:25.917Z,34.16
2023-04-15T07:23:52.614Z,33.62
2023-04-15T07:26:19.275Z,32.39
2023-04-15T07:28:47.419Z,32.18
2023-04-15T07:31:14.909Z,31.44
2023-04-15T07:33:41.793Z,29.74
2023-04-15T07:36:08.696Z,28.45
2023-04-15T07:38:35.641Z,28.87
2023-04-15T07:41:02.578Z,28.38
2023-04-15T07:43:29.415Z,26.08
2023-04-15T07:45:56.072Z,26.79
2023-04-15T07:48:22.695Z,25.52
2023-04-15T07:50:49.398Z,23.90
2023-04-15T07:53:16.029Z,24.26
2023-04-15T07:55:42.672Z,24.36
2023-04-15T07:58:09.320Z,23.95
2023-04-15T08:00:36.247Z,22.17
2023-04-15T08:03:03.215Z,22.62
2023-04-15T08:05:30.277Z,21.89
2023-04-15T08:07:57.270Z,22.33
2023-04-15T08:10:23.899Z,21.68
2023-04-15T08:12:50.859Z,20.88
2023-04-15T08:15:17.660Z,19.79
2023-04-15T08:17:44.271Z,19.68
2023-04-15T08:20:11.551Z,19.86
2023-04-15T08:22:38.053Z,20.08
2023-04-15T08:25:05.118Z,21.18
2023-04-15T08:27:31.686Z,21.18
2023-04-15T08:29:58.450Z,20.26
2023-04-15T08:32:26.674Z,20.25
2023-04-15T08:34:53.475Z,19.72
2023-04-15T08:37:20.052Z,18.91
2023-04-15T08:39:46.614Z,19.12
2023-04-15T08:42:18.448Z,17.88
2023-04-15T08:44:46.677Z,18.20
2023-04-15T08:47:17.360Z,18.22
2023-04-15T08:49:44.448Z,19.06
2023-04-15T08:52:12.175Z,17.52
2023-04-15T08:54:38.959Z,17.04
2023-04-15T08:57:06.754Z,17.96
2023-04-15T08:59:33.367Z,17.34
2023-04-15T09:02:00.089Z,20.66
2023-04-15T09:04:28.537Z,20.14
2023-04-15T09:06:55.165Z,17.90
2023-04-15T09:09:22.651Z,15.99
2023-04-15T09:11:50.093Z,16.55
2023-04-15T09:14:17.366Z,18.23
2023-04-15T09:17:03.002Z,15.40
2023-04-15T09:19:30.328Z,16.05
2023-04-15T09:21:59.307Z,16.19
2023-04-15T09:24:36.153Z,29.18
2023-04-15T09:27:03.636Z,19.82
2023-04-15T09:29:30.329Z,19.89
2023-04-15T09:31:56.925Z,21.65
2023-04-15T09:34:35.916Z,18.81
2023-04-15T09:37:02.530Z,17.22
2023-04-15T09:39:45.791Z,17.30
2023-04-15T09:42:12.458Z,17.34
2023-04-15T09:44:39.101Z,17.41
2023-04-15T09:47:06.349Z,17.97
2023-04-15T09:49:33.118Z,18.15
2023-04-15T09:52:06.129Z,17.80
2023-04-15T09:54:38.036Z,17.36
2023-04-15T09:57:10.096Z,16.03
2023-04-15T09:59:37.084Z,16.52
2023-04-15T10:02:09.798Z,15.70
2023-04-15T10:04:40.714Z,15.34
2023-04-15T10:07:09.573Z,16.00
2023-04-15T10:09:38.280Z,15.56
2023-04-15T10:12:05.288Z,14.31
2023-04-15T10:14:33.308Z,14.45
2023-04-15T10:17:03.253Z,15.19
2023-04-15T10:19:33.725Z,15.61
2023-04-15T10:22:00.389Z,16.05
2023-04-15T10:24:27.955Z,16.05
2023-04-15T10:26:55.413Z,15.78
2023-04-15T10:29:23.595Z,16.50
2023-04-15T10:31:51.024Z,16.54
2023-04-15T10:34:18.833Z,16.10
2023-04-15T10:36:47.054Z,15.88
2023-04-15T10:39:38.705Z,17.90
2023-04-15T10:42:11.400Z,18.84
2023-04-15T10:44:39.314Z,18.96
2023-04-15T10:47:18.988Z,19.15
2023-04-15T10:49:56.999Z,19.73
2023-04-15T10:52:27.519Z,19.13
2023-04-15T10:55:13.310Z,19.75
2023-04-15T10:57:43.131Z,19.66
2023-04-15T11:00:11.519Z,19.40
2023-04-15T11:02:44.114Z,19.18
2023-04-15T11:05:12.095Z,19.27
2023-04-15T11:07:48.617Z,19.85
2023-04-15T11:10:18.546Z,20.24
2023-04-15T11:12:46.023Z,20.35
2023-04-15T11:15:33.246Z,19.86
2023-04-15T11:18:09.660Z,19.17
2023-04-15T11:20:37.631Z,19.32
2023-04-15T11:23:13.889Z,19.63
2023-04-15T11:25:43.217Z,19.63
2023-04-15T11:28:11.414Z,20.37
2023-04-15T11:30:39.009Z,21.69
2023-04-15T11:33:12.262Z,21.23
2023-04-15T11:35:40.968Z,22.06
2023-04-15T11:38:13.796Z,22.30
2023-04-15T11:40:42.459Z,21.29
2023-04-15T11:43:15.934Z,21.54
2023-04-15T11:45:51.345Z,21.46
2023-04-15T11:48:18.753Z,21.52
2023-04-15T11:50:45.628Z,21.99
2023-04-15T11:53:16.207Z,22.90
2023-04-15T11:55:47.888Z,22.50
2023-04-15T11:58:19.418Z,23.06
2023-04-15T12:00:54.705Z,22.59
2023-04-15T12:03:27.785Z,22.53
2023-04-15T12:06:16.405Z,23.01
2023-04-15T12:08:55.970Z,22.46
2023-04-15T12:11:47.460Z,22.95
2023-04-15T12:14:28.341Z,23.44
2023-04-15T12:16:56.040Z,23.68
2023-04-15T12:19:28.606Z,24.10
2023-04-15T12:22:04.266Z,24.45
2023-04-15T12:24:35.948Z,24.91
2023-04-15T12:27:08.071Z,25.62
2023-04-15T12:29:37.333Z,25.95
2023-04-15T12:32:08.497Z,26.18
2023-04-15T12:34:35.723Z,25.49
2023-04-15T12:37:05.016Z,25.94
2023-04-15T12:39:42.052Z,25.92
2023-04-15T12:42:09.798Z,26.55
2023-04-15T12:44:37.704Z,26.74
2023-04-15T12:47:04.963Z,26.81
2023-04-15T12:49:32.637Z,27.16
2023-04-15T12:52:01.613Z,26.63
2023-04-15T12:54:29.725Z,26.26
2023-04-15T12:56:56.853Z,26.64
2023-04-15T12:59:26.577Z,26.11
2023-04-15T13:01:53.660Z,25.34
2023-04-15T13:04:21.341Z,25.59
2023-04-15T13:06:51.533Z,25.46
2023-04-15T13:09:18.303Z,25.47
2023-04-15T13:11:44.904Z,26.00
2023-04-15T13:14:12.990Z,24.88
2023-04-15T13:16:39.947Z,24.29
2023-04-15T13:19:07.364Z,23.73
2023-04-15T13:21:35.688Z,23.57
2023-04-15T13:24:03.616Z,22.47
2023-04-15T13:26:31.335Z,22.00
2023-04-15T13:28:58.167Z,20.62
2023-04-15T13:31:24.750Z,20.66
2023-04-15T13:33:51.816Z,19.90
2023-04-15T13:36:20.489Z,18.39
2023-04-15T13:38:49.680Z,17.95
2023-04-15T13:41:17.744Z,17.65
2023-04-15T13:43:44.408Z,17.63
2023-04-15T13:46:11.155Z,16.15
2023-04-15T13:48:40.705Z,15.94
2023-04-15T13:51:07.265Z,15.14
2023-04-15T13:53:38.679Z,15.32
2023-04-15T13:56:10.360Z,15.54
2023-04-15T13:58:37.963Z,15.84
2023-04-15T14:01:07.610Z,16.10
2023-04-15T14:03:36.088Z,16.50
2023-04-15T14:06:03.235Z,16.82
2023-04-15T14:08:30.022Z,15.47
2023-04-15T14:10:57.575Z,14.57
2023-04-15T14:13:24.280Z,14.76
2023-04-15T14:15:50.824Z,14.23
2023-04-15T14:18:17.546Z,13.92
2023-04-15T14:20:46.619Z,14.54
2023-04-15T14:23:13.185Z,14.18
2023-04-15T14:25:39.823Z,15.08
2023-04-15T14:28:06.363Z,14.86
2023-04-15T14:30:33.304Z,15.31
2023-04-15T14:33:00.317Z,15.44
2023-04-15T14:35:27.381Z,15.19
2023-04-15T14:37:54.677Z,14.75
2023-04-15T14:40:21.994Z,15.64
2023-04-15T14:42:48.718Z,15.40
2023-04-15T14:45:15.435Z,15.33
2023-04-15T14:47:42.165Z,16.31
2023-04-15T14:50:09.258Z,17.17
2023-04-15T14:52:39.048Z,18.64
2023-04-15T14:55:07.792Z,19.43
2023-04-15T14:57:34.628Z,19.73
2023-04-15T15:00:01.383Z,19.27
2023-04-15T15:02:38.118Z,19.94
2023-04-15T15:05:07.231Z,20.91
2023-04-15T15:07:33.988Z,21.17
2023-04-15T15:10:00.928Z,21.29
2023-04-15T15:12:27.596Z,22.17
2023-04-15T15:14:55.991Z,21.54
2023-04-15T15:17:22.623Z,21.67
2023-04-15T15:19:49.615Z,22.12
2023-04-15T15:22:16.370Z,21.52
2023-04-15T15:24:43.125Z,20.80
2023-04-15T15:27:10.012Z,20.26
2023-04-15T15:29:37.918Z,19.28
2023-04-15T15:32:04.740Z,19.23
2023-04-15T15:34:32.072Z,18.57
2023-04-15T15:36:58.775Z,18.11
2023-04-15T15:39:25.990Z,17.62
2023-04-15T15:41:52.679Z,17.05
2023-04-15T15:44:19.352Z,16.76
2023-04-15T15:46:46.266Z,16.75
2023-04-15T15:49:12.969Z,16.35
2023-04-15T15:51:39.695Z,15.74
2023-04-15T15:54:06.546Z,15.81
2023-04-15T15:56:34.385Z,15.79
2023-04-15T15:59:02.022Z,16.35
2023-04-15T16:01:28.969Z,16.67
2023-04-15T16:03:55.863Z,17.76
2023-04-15T16:06:22.596Z,17.98
2023-04-15T16:08:49.217Z,18.88
2023-04-15T16:11:16.047Z,18.76
2023-04-15T16:13:42.797Z,19.32
2023-04-15T16:16:09.411Z,19.72
2023-04-15T16:18:36.287Z,19.34
2023-04-15T16:21:02.925Z,19.72
2023-04-15T16:23:29.603Z,19.50
2023-04-15T16:25:56.243Z,19.81
2023-04-15T16:28:26.869Z,19.89
2023-04-15T16:30:55.003Z,20.09
2023-04-15T16:33:21.609Z,20.23
2023-04-15T16:35:48.283Z,20.68
2023-04-15T16:38:15.837Z,21.34
2023-04-15T16:40:42.493Z,22.18
2023-04-15T16:43:11.224Z,22.87
2023-04-15T16:45:38.143Z,23.63
2023-04-15T16:48:05.013Z,23.78
2023-04-15T16:50:31.882Z,23.63
2023-04-15T16:52:58.526Z,24.38
2023-04-15T16:55:25.408Z,24.79
2023-04-15T16:58:01.525Z,25.07
2023-04-15T17:00:31.603Z,25.51
2023-04-15T17:02:59.228Z,25.27
2023-04-15T17:05:29.200Z,25.53
2023-04-15T17:07:55.938Z,25.52
2023-04-15T17:10:23.372Z,25.82
2023-04-15T17:12:51.911Z,26.11
2023-04-15T17:15:19.432Z,27.06
2023-04-15T17:17:46.146Z,27.73
2023-04-15T17:20:13.014Z,27.79
2023-04-15T17:22:39.869Z,28.35
2023-04-15T17:25:06.997Z,28.33
2023-04-15T17:27:33.655Z,28.31
2023-04-15T17:30:00.332Z,28.82
2023-04-15T17:32:31.780Z,28.55
2023-04-15T17:34:58.717Z,29.15
2023-04-15T17:37:25.604Z,29.04
2023-04-15T17:39:53.364Z,28.89
2023-04-15T17:42:19.915Z,28.81
2023-04-15T17:44:46.472Z,28.71
2023-04-15T17:47:13.076Z,29.04
2023-04-15T17:49:39.852Z,29.50
2023-04-15T17:52:06.521Z,32.79
2023-04-15T17:54:33.163Z,35.54
2023-04-15T17:57:00.107Z,36.60
2023-04-15T17:59:27.864Z,37.67
2023-04-15T18:01:55.026Z,38.34
2023-04-15T18:04:24.051Z,38.69
2023-04-15T18:06:52.790Z,39.39
2023-04-15T18:09:19.365Z,39.26
2023-04-15T18:11:48.282Z,39.30
2023-04-15T18:14:26.642Z,39.61
2023-04-15T18:16:57.788Z,39.70
2023-04-15T18:19:25.762Z,39.93
2023-04-15T18:21:52.572Z,40.01
2023-04-15T18:24:19.347Z,40.06
2023-04-15T18:26:48.742Z,40.44
2023-04-15T18:29:15.656Z,40.62
2023-04-15T18:31:42.265Z,40.78
2023-04-15T18:34:09.166Z,40.97
2023-04-15T18:36:35.830Z,41.06
2023-04-15T18:39:02.873Z,40.93
2023-04-15T18:41:29.793Z,41.11
2023-04-15T18:43:56.506Z,41.35
2023-04-15T18:46:23.181Z,41.11
2023-04-15T18:48:49.870Z,40.76
2023-04-15T18:51:16.546Z,41.02
2023-04-15T18:53:43.242Z,40.74
2023-04-15T18:56:09.906Z,40.75
2023-04-15T18:59:26.022Z,40.63
2023-04-15T19:01:24.193Z,40.74
2023-04-15T19:03:50.978Z,41.20
2023-04-15T19:06:17.712Z,40.90
2023-04-15T19:08:44.456Z,41.05
2023-04-15T19:11:11.360Z,41.02
2023-04-15T19:13:37.936Z,41.34
2023-04-15T19:16:04.819Z,41.43
2023-04-15T19:18:31.438Z,41.61
2023-04-15T19:20:58.215Z,41.86
2023-04-15T19:23:25.005Z,42.07
2023-04-15T19:25:51.637Z,42.33
2023-04-15T19:28:18.296Z,42.16
2023-04-15T19:30:44.974Z,42.62
2023-04-15T19:33:12.051Z,42.69
2023-04-15T19:35:40.473Z,43.06
2023-04-15T19:38:07.024Z,43.17
2023-04-15T19:40:33.784Z,42.72
2023-04-15T19:43:00.496Z,42.89
2023-04-15T19:45:27.291Z,43.23
2023-04-15T19:47:54.367Z,43.52
2023-04-15T19:50:25.808Z,43.74
2023-04-15T19:52:53.096Z,43.67
2023-04-15T19:55:20.071Z,43.84
2023-04-15T19:57:46.876Z,43.85
2023-04-15T20:00:13.884Z,44.07
2023-04-15T20:02:40.877Z,43.98
2023-04-15T20:05:09.876Z,43.87
2023-04-15T20:07:36.845Z,43.91
2023-04-15T20:10:08.523Z,44.00
2023-04-15T20:12:51.475Z,44.66
2023-04-15T20:15:20.826Z,44.47
2023-04-15T20:17:47.553Z,44.29
2023-04-15T20:20:14.268Z,45.60
2023-04-15T20:22:41.431Z,46.21
2023-04-15T20:25:08.804Z,46.26
2023-04-15T20:27:35.495Z,46.08
2023-04-15T20:30:04.672Z,46.81
2023-04-15T20:32:36.019Z,47.31
2023-04-15T20:35:05.558Z,47.47
2023-04-15T20:37:33.567Z,48.22
2023-04-15T20:40:00.685Z,48.82
2023-04-15T20:42:27.262Z,49.52
2023-04-15T20:44:53.965Z,49.78
2023-04-15T20:47:20.798Z,49.52
2023-04-15T20:49:47.550Z,49.89
2023-04-15T20:52:14.232Z,49.68
2023-04-15T20:54:41.049Z,49.78
2023-04-15T20:57:07.666Z,50.48
2023-04-15T20:59:34.806Z,50.72
2023-04-15T21:02:01.923Z,51.42
2023-04-15T21:04:28.685Z,50.98
2023-04-15T21:06:55.406Z,51.28
2023-04-15T21:09:22.029Z,50.58
2023-04-15T21:14:19.256Z,50.71
2023-04-15T21:16:46.040Z,51.29
2023-04-15T21:19:12.705Z,51.76
2023-04-15T21:21:39.389Z,52.48
2023-04-15T21:24:07.903Z,52.94
2023-04-15T21:26:36.095Z,53.16
2023-04-15T21:29:03.054Z,53.10
2023-04-15T21:31:30.068Z,53.56
2023-04-15T21:33:56.742Z,53.11
2023-04-15T21:36:23.336Z,53.46
2023-04-15T21:38:49.927Z,53.21
2023-04-15T21:41:16.525Z,52.76
2023-04-15T21:43:43.243Z,52.02
2023-04-15T21:46:22.697Z,51.91
2023-04-15T21:48:50.714Z,52.27
2023-04-15T21:51:17.330Z,52.41
2023-04-15T21:53:43.987Z,52.54
2023-04-15T21:56:10.843Z,52.14
2023-04-15T21:58:37.575Z,52.25
2023-04-15T22:01:04.966Z,52.48
2023-04-15T22:03:33.888Z,52.78
2023-04-15T22:06:01.834Z,53.16
2023-04-15T22:08:28.482Z,53.16
2023-04-15T22:10:55.487Z,53.80
2023-04-15T22:13:22.082Z,53.43
2023-04-15T22:15:48.776Z,54.23
2023-04-15T22:18:15.541Z,54.03
2023-04-15T22:20:42.174Z,53.68
2023-04-15T22:23:09.751Z,54.00
2023-04-15T22:25:37.192Z,53.27
2023-04-15T22:28:07.930Z,53.27
2023-04-15T22:30:41.430Z,53.05
2023-04-15T22:33:09.236Z,52.28
2023-04-15T22:35:37.179Z,50.60
2023-04-15T22:38:04.844Z,49.93
2023-04-15T22:40:31.465Z,49.59
2023-04-15T22:42:58.120Z,49.65
2023-04-15T22:45:24.642Z,49.09
2023-04-15T22:47:51.337Z,49.17
2023-04-15T22:50:18.078Z,49.57
2023-04-15T22:52:46.201Z,49.97
2023-04-15T22:55:13.168Z,50.15
2023-04-15T22:57:39.851Z,50.14
2023-04-15T23:00:07.358Z,49.83
2023-04-15T23:02:34.757Z,50.39
2023-04-15T23:05:04.599Z,50.13
2023-04-15T23:07:38.970Z,49.64
2023-04-15T23:10:06.117Z,49.43
2023-04-15T23:12:32.783Z,49.29
2023-04-15T23:14:59.467Z,49.82
2023-04-15T23:17:26.786Z,50.64
2023-04-15T23:19:53.461Z,51.36
2023-04-15T23:22:20.050Z,51.91
2023-04-15T23:24:46.630Z,53.27
2023-04-15T23:27:13.365Z,53.31
2023-04-15T23:29:40.029Z,53.70
2023-04-15T23:32:06.815Z,54.08
2023-04-15T23:34:33.430Z,54.64
2023-04-15T23:37:00.052Z,53.46
2023-04-15T23:39:26.726Z,53.37
2023-04-15T23:41:53.466Z,53.22
2023-04-15T23:44:20.289Z,53.71
2023-04-15T23:46:47.097Z,54.40
2023-04-15T23:49:13.672Z,55.44
2023-04-15T23:51:40.979Z,55.86
2023-04-15T23:54:07.590Z,55.95
2023-04-15T23:56:34.257Z,55.76
2023-04-15T23:59:01.106Z,55.08
